createdAt,value
2018-11-10T00:01:09.760Z,12.50
2018-11-10T00:03:37.969Z,12.60
2018-11-10T00:06:06.171Z,12.60
2018-11-10T00:08:34.349Z,12.60
2018-11-10T00:11:02.577Z,12.60
2018-11-10T00:13:30.761Z,12.60
2018-11-10T00:15:59.019Z,12.50
2018-11-10T00:18:27.237Z,12.60
2018-11-10T00:20:55.396Z,12.60
2018-11-10T00:23:23.575Z,12.60
2018-11-10T00:25:51.778Z,12.60
2018-11-10T00:28:20.224Z,12.60
2018-11-10T00:30:48.492Z,12.50
2018-11-10T00:33:16.675Z,12.60
2018-11-10T00:35:44.881Z,12.60
2018-11-10T00:38:13.592Z,12.60
2018-11-10T00:40:41.877Z,12.60
2018-11-10T00:43:10.352Z,12.60
2018-11-10T00:45:38.790Z,12.60
2018-11-10T00:48:07.056Z,12.60
2018-11-10T00:50:35.275Z,12.60
2018-11-10T00:53:03.468Z,12.60
2018-11-10T00:55:31.713Z,12.60
2018-11-10T00:57:59.904Z,12.60
2018-11-10T01:00:28.077Z,12.50
2018-11-10T01:02:56.708Z,12.50
2018-11-10T01:05:24.912Z,12.50
2018-11-10T01:07:53.277Z,12.40
2018-11-10T01:10:21.469Z,12.40
2018-11-10T01:12:49.668Z,12.40
2018-11-10T01:15:17.860Z,12.40
2018-11-10T01:17:46.072Z,12.30
2018-11-10T01:20:14.580Z,12.30
2018-11-10T01:22:42.773Z,12.30
2018-11-10T01:25:11.599Z,12.30
2018-11-10T01:27:39.864Z,12.30
2018-11-10T01:30:10.394Z,12.40
2018-11-10T01:32:38.617Z,12.40
2018-11-10T01:35:06.806Z,12.40
2018-11-10T01:37:35.110Z,12.50
2018-11-10T01:40:03.856Z,12.60
2018-11-10T01:42:32.054Z,12.60
2018-11-10T01:45:00.240Z,12.70
2018-11-10T01:47:28.444Z,12.70
2018-11-10T01:49:56.636Z,12.70
2018-11-10T01:52:24.832Z,12.70
2018-11-10T01:54:53.064Z,12.80
2018-11-10T01:57:21.261Z,12.80
2018-11-10T01:59:49.441Z,12.80
2018-11-10T02:02:17.640Z,12.80
2018-11-10T02:04:45.856Z,12.90
2018-11-10T02:07:14.064Z,13.00
2018-11-10T02:09:42.258Z,13.00
2018-11-10T02:12:10.467Z,13.10
2018-11-10T02:14:38.901Z,13.20
2018-11-10T02:17:07.105Z,13.20
2018-11-10T02:19:35.289Z,13.20
2018-11-10T02:22:03.490Z,13.30
2018-11-10T02:24:31.716Z,13.30
2018-11-10T02:26:59.926Z,13.20
2018-11-10T02:29:28.153Z,13.20
2018-11-10T02:31:56.329Z,13.20
2018-11-10T02:34:24.549Z,13.20
2018-11-10T02:36:52.732Z,13.20
2018-11-10T02:39:20.944Z,13.30
2018-11-10T02:41:49.144Z,13.30
2018-11-10T02:44:17.338Z,13.30
2018-11-10T02:46:45.580Z,13.20
2018-11-10T02:49:13.758Z,13.30
2018-11-10T02:51:41.953Z,13.20
2018-11-10T02:54:10.168Z,13.20
2018-11-10T02:56:38.341Z,13.30
2018-11-10T02:59:06.528Z,13.30
2018-11-10T03:01:34.709Z,13.20
2018-11-10T03:04:02.916Z,13.30
2018-11-10T03:06:31.105Z,13.30
2018-11-10T03:08:59.305Z,13.30
2018-11-10T03:11:27.500Z,13.30
2018-11-10T03:13:55.692Z,13.30
2018-11-10T03:16:23.927Z,13.40
2018-11-10T03:18:52.096Z,13.50
2018-11-10T03:21:20.293Z,13.50
2018-11-10T03:23:48.569Z,13.60
2018-11-10T03:26:16.756Z,13.60
2018-11-10T03:28:49.725Z,13.70
2018-11-10T03:31:17.933Z,13.70
2018-11-10T03:33:46.136Z,13.70
2018-11-10T03:36:14.319Z,13.70
2018-11-10T03:38:42.544Z,13.80
2018-11-10T03:41:10.743Z,13.80
2018-11-10T03:43:38.949Z,13.80
2018-11-10T03:46:13.725Z,13.80
2018-11-10T03:48:41.962Z,13.80
2018-11-10T03:51:10.097Z,13.80
2018-11-10T03:53:38.313Z,13.80
2018-11-10T03:56:06.961Z,13.80
2018-11-10T03:58:35.162Z,13.80
2018-11-10T04:01:03.584Z,13.80
2018-11-10T04:03:31.920Z,13.80
2018-11-10T04:06:00.089Z,13.70
2018-11-10T04:08:28.537Z,13.70
2018-11-10T04:10:56.718Z,13.70
2018-11-10T04:13:24.914Z,13.70
2018-11-10T04:15:53.194Z,13.70
2018-11-10T04:18:21.390Z,13.70
2018-11-10T04:20:49.564Z,13.70
2018-11-10T04:23:17.737Z,13.70
2018-11-10T04:25:46.001Z,13.70
2018-11-10T04:28:14.208Z,13.70
2018-11-10T04:30:42.407Z,13.70
2018-11-10T04:33:10.585Z,13.70
2018-11-10T04:35:38.774Z,13.70
2018-11-10T04:38:06.961Z,13.70
2018-11-10T04:40:35.157Z,13.70
2018-11-10T04:43:03.328Z,13.70
2018-11-10T04:45:31.592Z,13.70
2018-11-10T04:47:59.778Z,13.80
2018-11-10T04:50:27.976Z,13.80
2018-11-10T04:52:56.525Z,13.80
2018-11-10T04:55:24.716Z,13.80
2018-11-10T04:57:53.011Z,13.80
2018-11-10T05:00:21.205Z,13.80
2018-11-10T05:02:49.380Z,13.70
2018-11-10T05:05:17.593Z,13.60
2018-11-10T05:07:45.761Z,13.60
2018-11-10T05:10:13.950Z,13.50
2018-11-10T05:12:42.149Z,13.40
2018-11-10T05:15:12.281Z,13.30
2018-11-10T05:17:40.647Z,13.20
2018-11-10T05:20:08.873Z,13.10
2018-11-10T05:22:37.040Z,13.10
2018-11-10T05:25:05.838Z,13.00
2018-11-10T05:27:34.057Z,12.90
2018-11-10T05:30:02.260Z,12.90
2018-11-10T05:32:30.425Z,12.80
2018-11-10T05:34:58.616Z,12.70
2018-11-10T05:37:26.968Z,12.70
2018-11-10T05:39:55.187Z,12.60
2018-11-10T05:42:23.355Z,12.50
2018-11-10T05:44:51.620Z,12.50
2018-11-10T05:47:19.793Z,12.40
2018-11-10T05:49:48.012Z,12.40
2018-11-10T05:52:16.440Z,12.40
2018-11-10T05:54:44.648Z,12.40
2018-11-10T05:57:12.870Z,12.40
2018-11-10T05:59:41.028Z,12.40
2018-11-10T06:02:09.209Z,12.40
2018-11-10T06:04:37.414Z,12.40
2018-11-10T06:07:05.576Z,12.40
2018-11-10T06:09:33.824Z,12.40
2018-11-10T06:12:01.964Z,12.40
2018-11-10T06:14:30.164Z,12.40
2018-11-10T06:16:58.378Z,12.40
2018-11-10T06:19:26.577Z,12.40
2018-11-10T06:21:54.757Z,12.50
2018-11-10T06:24:22.974Z,12.50
2018-11-10T06:26:51.160Z,12.50
2018-11-10T06:29:19.380Z,12.60
2018-11-10T06:31:47.556Z,12.60
2018-11-10T06:34:15.789Z,12.60
2018-11-10T06:36:43.962Z,12.60
2018-11-10T06:39:12.593Z,12.50
2018-11-10T06:41:40.936Z,12.60
2018-11-10T06:44:09.275Z,12.60
2018-11-10T06:46:37.920Z,12.60
2018-11-10T06:49:06.320Z,12.70
2018-11-10T06:51:34.493Z,12.70
2018-11-10T06:54:02.793Z,12.70
2018-11-10T06:56:30.950Z,12.70
2018-11-10T06:58:59.168Z,12.70
2018-11-10T07:01:27.334Z,12.60
2018-11-10T07:03:55.528Z,12.60
2018-11-10T07:06:23.757Z,12.60
2018-11-10T07:08:51.893Z,12.60
2018-11-10T07:11:20.054Z,12.60
2018-11-10T07:16:07.692Z,12.60
2018-11-10T07:18:35.880Z,12.60
2018-11-10T07:21:04.365Z,12.60
2018-11-10T07:23:32.636Z,12.70
2018-11-10T07:26:00.846Z,12.70
2018-11-10T07:28:29.078Z,12.70
2018-11-10T07:30:57.253Z,12.70
2018-11-10T07:33:25.525Z,12.70
2018-11-10T07:35:53.714Z,12.70
2018-11-10T07:38:22.470Z,12.70
2018-11-10T07:40:50.643Z,12.70
2018-11-10T07:43:19.142Z,12.70
2018-11-10T07:45:47.344Z,12.70
2018-11-10T07:48:16.609Z,12.70
2018-11-10T07:50:44.789Z,12.70
2018-11-10T07:53:12.986Z,12.70
2018-11-10T07:55:41.239Z,12.70
2018-11-10T07:58:09.368Z,12.70
2018-11-10T08:00:37.575Z,12.70
2018-11-10T08:03:05.751Z,12.70
2018-11-10T08:05:33.944Z,12.70
2018-11-10T08:08:02.118Z,12.70
2018-11-10T08:10:30.305Z,12.80
2018-11-10T08:12:58.520Z,12.80
2018-11-10T08:15:26.737Z,12.80
2018-11-10T08:17:54.911Z,12.80
2018-11-10T08:20:23.201Z,12.90
2018-11-10T08:22:51.409Z,12.90
2018-11-10T08:25:19.611Z,12.90
2018-11-10T08:27:47.821Z,13.00
2018-11-10T08:30:16.049Z,13.00
2018-11-10T08:32:44.413Z,13.10
2018-11-10T08:35:13.521Z,13.10
2018-11-10T08:37:41.782Z,13.10
2018-11-10T08:40:17.453Z,13.10
2018-11-10T08:42:45.733Z,13.10
2018-11-10T08:45:14.704Z,13.10
2018-11-10T08:47:43.589Z,13.20
2018-11-10T08:50:12.847Z,13.20
2018-11-10T08:52:41.993Z,13.20
2018-11-10T08:55:11.312Z,13.20
2018-11-10T08:57:39.792Z,13.20
2018-11-10T09:00:08.841Z,13.20
2018-11-10T09:02:37.081Z,13.20
2018-11-10T09:05:06.344Z,13.30
2018-11-10T09:07:35.479Z,13.30
2018-11-10T09:10:03.714Z,13.30
2018-11-10T09:12:31.895Z,13.30
2018-11-10T09:15:00.142Z,13.30
2018-11-10T09:17:28.302Z,13.30
2018-11-10T09:19:56.513Z,13.20
2018-11-10T09:22:24.689Z,13.20
2018-11-10T09:24:52.909Z,13.20
2018-11-10T09:27:21.136Z,13.20
2018-11-10T09:29:49.361Z,13.10
2018-11-10T09:32:17.537Z,13.10
2018-11-10T09:34:45.753Z,13.20
2018-11-10T09:37:13.933Z,13.20
2018-11-10T09:39:42.097Z,13.20
2018-11-10T09:42:10.425Z,13.20
2018-11-10T09:44:38.475Z,13.20
2018-11-10T09:47:06.753Z,13.20
2018-11-10T09:49:34.929Z,13.20
2018-11-10T09:52:03.210Z,13.20
2018-11-10T09:54:31.319Z,13.10
2018-11-10T09:56:59.574Z,13.10
2018-11-10T09:59:28.320Z,13.10
2018-11-10T10:01:56.974Z,13.10
2018-11-10T10:04:24.820Z,13.10
2018-11-10T10:06:53.102Z,13.10
2018-11-10T10:09:21.269Z,13.00
2018-11-10T10:11:51.569Z,13.00
2018-11-10T10:14:23.477Z,13.00
2018-11-10T10:16:52.659Z,13.00
2018-11-10T10:19:21.627Z,13.00
2018-11-10T10:21:50.895Z,13.00
2018-11-10T10:24:20.185Z,13.00
2018-11-10T10:26:48.533Z,13.00
2018-11-10T10:29:16.754Z,13.00
2018-11-10T10:31:44.992Z,12.90
2018-11-10T10:34:13.315Z,12.90
2018-11-10T10:36:41.509Z,12.90
2018-11-10T10:39:10.210Z,12.80
2018-11-10T10:41:38.878Z,12.80
2018-11-10T10:44:08.794Z,12.70
2018-11-10T10:46:37.891Z,12.70
2018-11-10T10:49:40.211Z,12.60
2018-11-10T10:52:14.710Z,12.60
2018-11-10T10:54:43.997Z,12.60
2018-11-10T10:57:14.371Z,12.60
2018-11-10T10:59:43.987Z,12.50
2018-11-10T11:02:18.683Z,12.50
2018-11-10T11:04:54.789Z,12.50
2018-11-10T11:07:26.183Z,12.50
2018-11-10T11:09:55.549Z,12.50
2018-11-10T11:12:24.704Z,12.50
2018-11-10T11:15:08.715Z,12.50
2018-11-10T11:17:38.181Z,12.50
2018-11-10T11:20:07.626Z,12.50
2018-11-10T11:22:36.948Z,12.60
2018-11-10T11:25:08.008Z,12.60
2018-11-10T11:27:36.309Z,12.60
2018-11-10T11:30:05.234Z,12.60
2018-11-10T11:32:33.449Z,12.60
2018-11-10T11:35:01.674Z,12.60
2018-11-10T11:37:29.828Z,12.60
2018-11-10T11:39:58.017Z,12.60
2018-11-10T11:42:26.280Z,12.50
2018-11-10T11:44:54.462Z,12.50
2018-11-10T11:47:22.692Z,12.50
2018-11-10T11:49:50.935Z,12.50
2018-11-10T11:52:19.092Z,12.50
2018-11-10T11:54:47.273Z,12.50
2018-11-10T11:57:15.488Z,12.50
2018-11-10T11:59:43.661Z,12.50
2018-11-10T12:02:11.933Z,12.50
2018-11-10T12:04:40.122Z,12.60
2018-11-10T12:07:08.288Z,12.60
2018-11-10T12:09:36.465Z,12.60
2018-11-10T12:12:04.672Z,12.60
2018-11-10T12:14:32.820Z,12.70
2018-11-10T12:17:01.160Z,12.70
2018-11-10T12:19:29.264Z,12.80
2018-11-10T12:21:57.514Z,12.90
2018-11-10T12:24:25.644Z,12.90
2018-11-10T12:26:53.866Z,13.00
2018-11-10T12:29:22.040Z,13.10
2018-11-10T12:31:50.855Z,13.10
2018-11-10T12:34:19.013Z,13.20
2018-11-10T12:36:47.224Z,13.20
2018-11-10T12:39:15.453Z,13.20
2018-11-10T12:41:43.848Z,13.30
2018-11-10T12:44:12.052Z,13.30
2018-11-10T12:46:40.276Z,13.30
2018-11-10T12:49:09.350Z,13.40
2018-11-10T12:51:37.538Z,12.70
2018-11-10T12:54:06.049Z,13.40
2018-11-10T12:56:34.249Z,13.40
2018-11-10T12:59:02.550Z,13.40
2018-11-10T13:01:30.727Z,13.50
2018-11-10T13:03:58.944Z,13.50
2018-11-10T13:06:27.139Z,13.50
2018-11-10T13:08:55.343Z,13.50
2018-11-10T13:11:23.610Z,13.50
2018-11-10T13:13:51.771Z,13.50
2018-11-10T13:16:20.844Z,13.60
2018-11-10T13:18:49.030Z,13.60
2018-11-10T13:21:17.203Z,13.60
2018-11-10T13:23:45.406Z,13.70
2018-11-10T13:26:13.585Z,13.70
2018-11-10T13:28:41.809Z,13.70
2018-11-10T13:31:10.076Z,13.80
2018-11-10T13:33:38.404Z,13.80
2018-11-10T13:36:06.599Z,13.80
2018-11-10T13:38:34.789Z,13.80
2018-11-10T13:41:02.949Z,13.80
2018-11-10T13:43:31.425Z,13.80
2018-11-10T13:45:59.543Z,13.90
2018-11-10T13:48:27.744Z,13.90
2018-11-10T13:50:56.097Z,13.90
2018-11-10T13:53:24.149Z,13.90
2018-11-10T13:55:52.367Z,13.90
2018-11-10T13:58:20.547Z,13.90
2018-11-10T14:00:48.725Z,13.90
2018-11-10T14:03:16.905Z,14.00
2018-11-10T14:05:45.073Z,14.00
2018-11-10T14:08:13.284Z,14.00
2018-11-10T14:10:41.436Z,14.00
2018-11-10T14:13:09.633Z,14.00
2018-11-10T14:15:37.801Z,14.00
2018-11-10T14:18:06.009Z,14.10
2018-11-10T14:20:34.270Z,14.00
2018-11-10T14:23:02.395Z,14.10
2018-11-10T14:25:30.569Z,14.00
2018-11-10T14:27:58.758Z,14.00
2018-11-10T14:30:27.171Z,14.00
2018-11-10T14:32:55.763Z,14.00
2018-11-10T14:35:23.919Z,14.10
2018-11-10T14:37:54.274Z,14.10
2018-11-10T14:40:22.449Z,14.10
2018-11-10T14:42:50.640Z,14.10
2018-11-10T14:45:19.475Z,14.10
2018-11-10T14:47:47.720Z,14.10
2018-11-10T14:50:16.673Z,14.10
2018-11-10T14:52:44.985Z,14.00
2018-11-10T14:55:13.584Z,14.00
2018-11-10T14:57:42.088Z,14.00
2018-11-10T15:00:13.060Z,13.90
2018-11-10T15:02:41.310Z,13.80
2018-11-10T15:05:10.410Z,13.70
2018-11-10T15:07:38.805Z,13.60
2018-11-10T15:10:08.832Z,13.60
2018-11-10T15:12:37.185Z,13.50
2018-11-10T15:15:06.721Z,13.50
2018-11-10T15:17:35.006Z,13.40
2018-11-10T15:20:03.165Z,13.40
2018-11-10T15:22:31.369Z,13.40
2018-11-10T15:24:59.656Z,13.30
2018-11-10T15:27:28.008Z,13.30
2018-11-10T15:29:56.245Z,13.30
2018-11-10T15:32:24.781Z,13.30
2018-11-10T15:34:53.004Z,13.20
2018-11-10T15:37:21.193Z,13.20
2018-11-10T15:39:49.437Z,13.20
2018-11-10T15:42:17.697Z,13.20
2018-11-10T15:44:45.908Z,13.20
2018-11-10T15:47:14.154Z,13.20
2018-11-10T15:49:42.392Z,13.20
2018-11-10T15:52:10.630Z,13.20
2018-11-10T15:54:39.416Z,13.20
2018-11-10T15:57:07.712Z,13.30
2018-11-10T15:59:35.862Z,13.30
2018-11-10T16:02:04.051Z,13.30
2018-11-10T16:04:32.264Z,13.30
2018-11-10T16:07:00.448Z,13.30
2018-11-10T16:09:28.646Z,13.30
2018-11-10T16:11:56.818Z,13.20
2018-11-10T16:14:25.015Z,13.20
2018-11-10T16:16:53.193Z,13.20
2018-11-10T16:19:21.392Z,13.10
2018-11-10T16:21:49.565Z,13.10
2018-11-10T16:24:17.773Z,13.00
2018-11-10T16:26:45.943Z,13.00
2018-11-10T16:29:14.151Z,13.00
2018-11-10T16:31:42.312Z,13.00
2018-11-10T16:34:10.517Z,12.90
2018-11-10T16:36:38.709Z,12.90
2018-11-10T16:39:07.986Z,12.90
2018-11-10T16:41:36.374Z,12.90
2018-11-10T16:44:04.643Z,12.90
2018-11-10T16:46:32.865Z,12.90
2018-11-10T16:49:01.069Z,12.90
2018-11-10T16:51:29.283Z,12.90
2018-11-10T16:53:57.480Z,12.90
2018-11-10T16:56:25.750Z,12.90
2018-11-10T16:58:53.958Z,12.90
2018-11-10T17:01:22.125Z,12.90
2018-11-10T17:03:50.330Z,12.90
2018-11-10T17:06:18.497Z,12.90
2018-11-10T17:08:46.749Z,12.90
2018-11-10T17:11:14.874Z,12.90
2018-11-10T17:13:43.254Z,12.90
2018-11-10T17:16:11.449Z,12.80
2018-11-10T17:18:39.688Z,12.80
2018-11-10T17:21:07.909Z,12.80
2018-11-10T17:23:36.096Z,12.80
2018-11-10T17:26:04.392Z,12.80
2018-11-10T17:28:32.624Z,12.90
2018-11-10T17:31:00.814Z,12.90
2018-11-10T17:33:29.014Z,12.90
2018-11-10T17:35:57.204Z,12.90
2018-11-10T17:38:25.371Z,12.90
2018-11-10T17:40:53.570Z,12.90
2018-11-10T17:43:21.749Z,13.00
2018-11-10T17:45:49.936Z,13.00
2018-11-10T17:48:18.177Z,13.10
2018-11-10T17:50:46.406Z,13.00
2018-11-10T17:53:14.596Z,13.00
2018-11-10T17:55:42.801Z,13.00
2018-11-10T17:58:11.005Z,13.00
2018-11-10T18:00:39.220Z,13.00
2018-11-10T18:03:07.404Z,13.00
2018-11-10T18:05:35.590Z,13.00
2018-11-10T18:08:03.789Z,13.00
2018-11-10T18:10:32.005Z,13.00
2018-11-10T18:13:00.240Z,12.90
2018-11-10T18:15:28.500Z,12.90
2018-11-10T18:17:56.692Z,12.90
2018-11-10T18:20:24.862Z,12.90
2018-11-10T18:22:53.105Z,12.90
2018-11-10T18:25:21.306Z,12.90
2018-11-10T18:27:49.520Z,12.90
2018-11-10T18:30:17.697Z,12.90
2018-11-10T18:32:46.115Z,12.80
2018-11-10T18:35:14.338Z,12.80
2018-11-10T18:37:42.746Z,12.60
2018-11-10T18:40:10.995Z,12.60
2018-11-10T18:42:39.101Z,12.60
2018-11-10T18:45:08.197Z,12.50
2018-11-10T18:47:36.513Z,12.50
2018-11-10T18:50:06.650Z,12.50
2018-11-10T18:52:34.848Z,12.40
2018-11-10T18:55:03.058Z,12.40
2018-11-10T18:57:31.395Z,12.40
2018-11-10T18:59:59.417Z,12.40
2018-11-10T19:02:27.590Z,12.40
2018-11-10T19:04:55.833Z,12.30
2018-11-10T19:07:24.009Z,12.30
2018-11-10T19:09:52.201Z,12.30
2018-11-10T19:12:20.368Z,12.30
2018-11-10T19:14:48.944Z,12.20
2018-11-10T19:17:17.735Z,12.20
2018-11-10T19:19:46.787Z,12.20
2018-11-10T19:22:15.245Z,12.20
2018-11-10T19:24:43.525Z,12.20
2018-11-10T19:27:11.709Z,12.20
2018-11-10T19:29:40.112Z,12.20
2018-11-10T19:32:09.927Z,12.20
2018-11-10T19:34:39.071Z,12.20
2018-11-10T19:37:07.343Z,12.20
2018-11-10T19:39:37.528Z,12.20
2018-11-10T19:42:06.829Z,12.20
2018-11-10T19:44:35.088Z,12.20
2018-11-10T19:47:03.979Z,12.20
2018-11-10T19:49:33.236Z,12.20
2018-11-10T19:52:02.622Z,12.20
2018-11-10T19:54:31.522Z,12.20
2018-11-10T19:57:00.061Z,12.20
2018-11-10T19:59:30.355Z,12.20
2018-11-10T20:01:59.621Z,12.20
2018-11-10T20:04:27.908Z,12.20
2018-11-10T20:06:56.864Z,12.20
2018-11-10T20:09:26.158Z,12.20
2018-11-10T20:11:55.375Z,12.20
2018-11-10T20:14:24.871Z,12.20
2018-11-10T20:16:54.076Z,12.30
2018-11-10T20:22:07.361Z,12.30
2018-11-10T20:24:36.493Z,12.30
2018-11-10T20:27:06.183Z,12.30
2018-11-10T20:29:35.337Z,12.30
2018-11-10T20:32:04.589Z,12.30
2018-11-10T20:34:34.106Z,12.30
2018-11-10T20:37:04.519Z,12.30
2018-11-10T20:39:34.700Z,12.30
2018-11-10T20:42:04.234Z,12.30
2018-11-10T20:44:33.487Z,12.40
2018-11-10T20:47:02.888Z,12.40
2018-11-10T20:49:32.164Z,12.40
2018-11-10T20:52:01.951Z,12.40
2018-11-10T20:54:30.141Z,12.40
2018-11-10T20:56:59.476Z,12.40
2018-11-10T20:59:28.758Z,12.40
2018-11-10T21:01:57.527Z,12.40
2018-11-10T21:04:25.769Z,12.40
2018-11-10T21:06:55.162Z,12.40
2018-11-10T21:09:24.129Z,12.40
2018-11-10T21:11:52.402Z,12.40
2018-11-10T21:14:21.203Z,12.30
2018-11-10T21:16:49.514Z,12.30
2018-11-10T21:19:17.685Z,12.30
2018-11-10T21:21:46.480Z,12.30
2018-11-10T21:24:14.749Z,12.20
2018-11-10T21:26:42.983Z,12.20
2018-11-10T21:29:11.248Z,12.20
2018-11-10T21:31:39.360Z,12.20
2018-11-10T21:34:07.667Z,12.10
2018-11-10T21:36:35.845Z,12.10
2018-11-10T21:39:06.432Z,12.10
2018-11-10T21:41:34.739Z,12.00
2018-11-10T21:44:02.942Z,12.00
2018-11-10T21:46:31.152Z,12.00
2018-11-10T21:48:59.575Z,11.90
2018-11-10T21:51:27.850Z,11.90
2018-11-10T21:53:56.028Z,12.00
2018-11-10T21:56:24.227Z,11.90
2018-11-10T21:58:52.408Z,11.90
2018-11-10T22:01:20.624Z,12.00
2018-11-10T22:03:48.790Z,12.00
2018-11-10T22:06:16.987Z,12.00
2018-11-10T22:08:45.228Z,12.00
2018-11-10T22:11:13.381Z,12.00
2018-11-10T22:13:41.598Z,11.90
2018-11-10T22:16:09.825Z,12.00
2018-11-10T22:18:38.069Z,12.00
2018-11-10T22:21:06.581Z,12.00
2018-11-10T22:23:34.752Z,12.00
2018-11-10T22:26:03.547Z,12.00
2018-11-10T22:28:31.711Z,12.00
2018-11-10T22:31:00.023Z,12.00
2018-11-10T22:33:28.126Z,12.00
2018-11-10T22:35:56.352Z,12.00
2018-11-10T22:38:25.634Z,12.00
2018-11-10T22:40:53.869Z,12.10
2018-11-10T22:43:23.363Z,12.10
2018-11-10T22:45:51.576Z,12.00
2018-11-10T22:48:19.857Z,12.00
2018-11-10T22:50:48.056Z,12.00
2018-11-10T22:53:16.721Z,12.00
2018-11-10T22:55:44.945Z,12.00
2018-11-10T22:58:13.230Z,12.00
2018-11-10T23:00:46.770Z,11.90
2018-11-10T23:03:15.137Z,11.90
2018-11-10T23:05:43.864Z,11.90
2018-11-10T23:08:12.222Z,11.90
2018-11-10T23:10:42.709Z,11.80
2018-11-10T23:13:11.030Z,11.80
2018-11-10T23:15:39.700Z,11.80
2018-11-10T23:18:08.141Z,11.80
2018-11-10T23:20:36.350Z,11.10
2018-11-10T23:23:05.199Z,11.80
2018-11-10T23:25:33.406Z,12.70
2018-11-10T23:28:01.594Z,11.70
2018-11-10T23:30:29.788Z,11.70
2018-11-10T23:32:57.974Z,11.70
2018-11-10T23:35:26.169Z,11.70
2018-11-10T23:37:55.660Z,11.60
2018-11-10T23:40:24.313Z,11.60
2018-11-10T23:42:53.667Z,11.60
2018-11-10T23:45:21.880Z,11.60
2018-11-10T23:47:50.258Z,11.60
2018-11-10T23:50:18.783Z,11.60
2018-11-10T23:52:47.006Z,11.60
2018-11-10T23:55:15.904Z,11.60
2018-11-10T23:57:44.144Z,11.60
